Time;durP1;ratioP1;P1;durP2;ratioP2;P2;SDS_P1;SDS_P2;PMS_P1;PMS_P2;Temp;Humidity;BMP_temperature;BMP_pressure;BME280_temperature;BME280_humidity;BME280_pressure;Samples;Min_cycle;Max_cycle;Signal;HPM_P1;HPM_P2
2021/12/21 00:00:38;;;;;;;8.05;5.10;;;2.30;78.20;;;;;;5038872;28;20077;-66
2021/12/21 00:03:04;;;;;;;7.43;4.50;;;2.30;78.30;;;;;;5048972;28;20121;-66
2021/12/21 00:05:30;;;;;;;9.50;3.88;;;2.20;78.80;;;;;;5049019;28;20048;-66
2021/12/21 00:07:58;;;;;;;10.65;6.10;;;2.20;78.80;;;;;;5049331;28;20472;-66
2021/12/21 00:10:27;;;;;;;9.93;4.38;;;2.30;78.80;;;;;;5048987;28;20107;-66
2021/12/21 00:15:32;;;;;;;10.57;4.28;;;2.30;78.50;;;;;;5048608;28;20040;-66
2021/12/21 00:18:05;;;;;;;10.35;4.75;;;2.30;78.50;;;;;;5049237;28;20079;-66
2021/12/21 00:25:44;;;;;;;8.80;4.40;;;2.30;78.40;;;;;;5048617;28;20045;-66
2021/12/21 00:28:10;;;;;;;14.27;4.32;;;2.30;78.40;;;;;;5049042;28;20049;-66
2021/12/21 00:30:35;;;;;;;7.22;3.55;;;2.30;78.40;;;;;;5048149;28;20045;-66
2021/12/21 00:33:01;;;;;;;12.43;4.70;;;2.30;78.40;;;;;;5048488;28;20183;-66
2021/12/21 00:35:27;;;;;;;8.57;3.90;;;2.30;78.40;;;;;;5052866;28;20033;-67
2021/12/21 00:37:53;;;;;;;7.38;3.80;;;2.30;78.50;;;;;;5053112;28;20044;-66
2021/12/21 00:40:18;;;;;;;13.70;3.88;;;2.30;78.60;;;;;;5052102;28;20091;-66
2021/12/21 00:42:44;;;;;;;11.70;4.45;;;2.30;78.60;;;;;;5051477;28;20545;-66
2021/12/21 00:45:10;;;;;;;10.65;4.40;;;2.20;78.50;;;;;;5052117;28;20056;-66
2021/12/21 00:47:40;;;;;;;10.27;4.18;;;2.30;78.40;;;;;;5052493;28;20047;-66
2021/12/21 00:50:08;;;;;;;9.20;4.80;;;2.20;78.40;;;;;;5050794;28;20139;-66
2021/12/21 00:52:34;;;;;;;10.20;4.43;;;2.20;78.40;;;;;;5051184;28;20052;-66
2021/12/21 00:54:59;;;;;;;10.43;4.47;;;2.20;78.60;;;;;;5051676;28;20045;-66
2021/12/21 00:57:25;;;;;;;7.45;4.70;;;2.20;78.40;;;;;;5051066;28;20033;-67
2021/12/21 00:59:51;;;;;;;10.38;4.20;;;2.20;78.30;;;;;;5051694;28;20095;-67
2021/12/21 01:02:16;;;;;;;10.35;4.70;;;2.10;78.40;;;;;;5052384;28;20049;-66
2021/12/21 01:04:47;;;;;;;9.43;4.43;;;2.10;78.60;;;;;;5052813;28;20128;-67
2021/12/21 01:12:18;;;;;;;9.25;3.88;;;2.00;78.60;;;;;;5047877;28;20491;-67
2021/12/21 01:17:36;;;;;;;9.38;4.50;;;1.90;79.00;;;;;;5031349;28;20049;-66
2021/12/21 01:20:06;;;;;;;8.70;3.50;;;2.00;79.10;;;;;;5028677;28;20102;-67
2021/12/21 01:23:05;;;;;;;6.60;3.58;;;1.90;79.20;;;;;;5052462;28;20293;-67
2021/12/21 01:25:37;;;;;;;11.53;4.07;;;2.00;79.20;;;;;;5051673;28;20071;-67
2021/12/21 01:28:18;;;;;;;9.40;3.85;;;1.90;79.10;;;;;;5034163;28;20077;-67
2021/12/21 01:31:02;;;;;;;9.23;4.40;;;1.90;79.10;;;;;;5052116;28;20528;-66
2021/12/21 01:36:26;;;;;;;13.35;4.43;;;1.80;79.20;;;;;;5050938;28;20501;-66
2021/12/21 01:39:07;;;;;;;11.43;6.00;;;1.80;79.20;;;;;;5049092;28;20103;-66
2021/12/21 01:49:44;;;;;;;8.27;3.40;;;1.80;79.10;;;;;;5043577;28;20052;-67
2021/12/21 01:52:13;;;;;;;11.13;4.20;;;1.80;79.10;;;;;;5044224;28;20041;-66
2021/12/21 01:54:39;;;;;;;10.02;3.75;;;1.80;79.10;;;;;;5050199;28;20041;-66
2021/12/21 01:57:05;;;;;;;11.90;3.83;;;1.80;79.10;;;;;;5050784;28;20111;-66
2021/12/21 01:59:33;;;;;;;7.50;3.42;;;1.80;79.00;;;;;;5050583;28;20041;-66
2021/12/21 02:01:59;;;;;;;15.30;4.95;;;1.80;79.00;;;;;;5050550;28;20049;-67
2021/12/21 02:04:24;;;;;;;11.10;4.35;;;1.80;79.00;;;;;;5051141;28;20416;-66
2021/12/21 02:06:52;;;;;;;10.93;3.80;;;1.70;78.90;;;;;;5049896;28;20119;-66
2021/12/21 02:09:19;;;;;;;8.23;3.75;;;1.70;78.90;;;;;;5050144;28;20056;-66
2021/12/21 02:11:46;;;;;;;9.80;4.60;;;1.70;79.00;;;;;;5050191;28;20094;-67
2021/12/21 02:14:13;;;;;;;7.70;3.97;;;1.70;79.00;;;;;;5049405;28;20124;-66
2021/12/21 02:19:25;;;;;;;8.93;4.10;;;1.60;79.20;;;;;;5042744;28;20044;-67
2021/12/21 02:21:52;;;;;;;7.43;4.25;;;1.60;79.40;;;;;;5031954;28;20069;-66
2021/12/21 02:24:22;;;;;;;11.70;4.85;;;1.60;79.30;;;;;;5050430;28;20062;-67
2021/12/21 02:29:24;;;;;;;8.65;4.03;;;1.60;79.30;;;;;;5044787;28;20053;-66
2021/12/21 02:31:51;;;;;;;10.35;3.65;;;1.60;79.30;;;;;;5050257;28;20493;-66
2021/12/21 02:34:19;;;;;;;8.68;3.65;;;1.60;79.50;;;;;;5049678;28;20037;-66
2021/12/21 02:36:47;;;;;;;9.48;4.68;;;1.60;79.60;;;;;;5049791;28;20064;-66
2021/12/21 02:39:14;;;;;;;11.15;4.80;;;1.60;79.50;;;;;;5049729;28;20433;-66
2021/12/21 02:41:41;;;;;;;10.70;5.05;;;1.60;79.30;;;;;;5049608;28;20513;-66
2021/12/21 02:44:07;;;;;;;14.23;4.53;;;1.60;79.30;;;;;;5049570;28;20155;-66
2021/12/21 02:46:34;;;;;;;10.35;4.97;;;1.50;79.40;;;;;;5050577;28;20132;-66
2021/12/21 02:49:00;;;;;;;11.55;4.20;;;1.50;79.40;;;;;;5049769;28;20063;-66
2021/12/21 02:51:26;;;;;;;13.75;5.60;;;1.50;79.30;;;;;;5049988;28;20033;-66
2021/12/21 02:53:51;;;;;;;9.02;4.18;;;1.50;79.40;;;;;;5049013;28;20045;-66
2021/12/21 02:56:17;;;;;;;12.90;4.53;;;1.50;79.40;;;;;;5049342;28;20041;-66
2021/12/21 02:58:43;;;;;;;11.13;4.07;;;1.50;79.30;;;;;;5049773;28;20041;-66
2021/12/21 03:01:11;;;;;;;7.63;4.47;;;1.50;79.40;;;;;;5050437;28;20475;-66
2021/12/21 03:03:37;;;;;;;9.63;3.88;;;1.60;79.40;;;;;;5050344;28;20051;-66
2021/12/21 03:06:08;;;;;;;8.55;4.32;;;1.50;79.40;;;;;;5048321;28;20037;-66
2021/12/21 03:08:40;;;;;;;9.05;4.10;;;1.50;79.30;;;;;;5050152;28;20051;-66
2021/12/21 03:11:19;;;;;;;10.82;4.03;;;1.50;79.30;;;;;;5030443;28;20521;-66
2021/12/21 03:14:18;;;;;;;6.80;3.90;;;1.50;79.30;;;;;;5032027;28;20461;-66
2021/12/21 03:16:39;;;;;;;17.27;4.80;;;1.40;79.30;;;;;;5046282;28;20139;-66
2021/12/21 03:19:07;;;;;;;5.57;3.30;;;1.40;79.50;;;;;;5049840;28;20445;-66
2021/12/21 03:21:35;;;;;;;7.63;3.28;;;1.40;79.60;;;;;;5031760;28;20049;-67
2021/12/21 03:24:01;;;;;;;8.85;3.80;;;1.40;79.60;;;;;;5050060;28;20048;-66
2021/12/21 03:26:27;;;;;;;5.70;3.72;;;1.40;79.50;;;;;;5049948;28;20477;-66
2021/12/21 03:28:53;;;;;;;7.05;3.72;;;1.30;79.50;;;;;;5049432;28;20059;-66
2021/12/21 03:31:19;;;;;;;8.02;3.95;;;1.30;79.60;;;;;;5048908;28;20383;-66
2021/12/21 03:33:45;;;;;;;4.85;3.25;;;1.30;79.70;;;;;;5048936;28;20127;-66
2021/12/21 03:36:11;;;;;;;9.15;3.47;;;1.30;79.70;;;;;;5049433;28;20049;-66
2021/12/21 03:38:38;;;;;;;7.20;3.60;;;1.30;79.70;;;;;;5049756;28;20401;-66
2021/12/21 03:41:10;;;;;;;5.82;3.15;;;1.20;79.70;;;;;;5047937;28;20094;-66
2021/12/21 03:43:36;;;;;;;6.25;3.17;;;1.20;80.00;;;;;;5049985;28;20055;-66
2021/12/21 03:46:10;;;;;;;4.40;2.75;;;1.20;80.10;;;;;;5048484;28;20041;-66
2021/12/21 03:48:40;;;;;;;3.25;2.67;;;1.20;80.10;;;;;;5049672;28;20124;-66
2021/12/21 03:51:06;;;;;;;10.65;3.20;;;1.20;80.10;;;;;;5049026;28;20123;-66
2021/12/21 03:53:32;;;;;;;4.68;2.75;;;1.20;80.10;;;;;;5049290;28;20120;-66
2021/12/21 03:56:11;;;;;;;4.55;2.78;;;1.20;80.10;;;;;;5047579;28;20412;-66
2021/12/21 03:58:36;;;;;;;6.53;3.03;;;1.20;80.00;;;;;;5043542;28;20037;-66
2021/12/21 04:01:03;;;;;;;7.30;4.07;;;1.20;80.00;;;;;;5040589;28;20045;-66
2021/12/21 04:03:28;;;;;;;6.63;3.78;;;1.20;80.10;;;;;;5049000;28;20041;-66
2021/12/21 04:05:54;;;;;;;5.68;3.20;;;1.10;80.00;;;;;;5048418;28;20141;-66
2021/12/21 04:08:20;;;;;;;6.43;3.47;;;1.10;80.20;;;;;;5047943;28;20449;-66
2021/12/21 04:10:45;;;;;;;6.45;3.00;;;1.10;80.30;;;;;;5048703;28;20037;-66
2021/12/21 04:13:11;;;;;;;3.53;2.15;;;1.10;80.20;;;;;;5030975;28;20049;-66
2021/12/21 04:15:43;;;;;;;3.58;2.05;;;1.10;80.20;;;;;;5048530;28;20037;-66
2021/12/21 04:18:13;;;;;;;2.40;1.73;;;1.10;80.20;;;;;;5048370;28;20175;-66
2021/12/21 04:20:40;;;;;;;6.05;2.40;;;1.10;80.20;;;;;;5048432;28;20041;-66
2021/12/21 04:23:07;;;;;;;6.50;2.42;;;1.10;80.10;;;;;;5049443;28;20048;-66
2021/12/21 04:25:34;;;;;;;5.57;3.13;;;1.00;80.10;;;;;;5048946;28;20490;-66
2021/12/21 04:27:59;;;;;;;4.63;2.72;;;1.00;80.20;;;;;;5049045;28;20048;-66
2021/12/21 04:30:25;;;;;;;4.25;2.75;;;1.00;80.30;;;;;;5047364;28;20045;-66
2021/12/21 04:32:51;;;;;;;4.97;2.67;;;1.00;80.30;;;;;;5049239;28;20053;-66
2021/12/21 04:35:20;;;;;;;5.55;3.47;;;1.00;80.30;;;;;;5048435;28;20054;-66
2021/12/21 04:37:55;;;;;;;12.98;4.40;;;1.00;80.30;;;;;;5047917;28;20049;-66
2021/12/21 04:40:25;;;;;;;7.82;3.85;;;1.00;80.20;;;;;;5048815;28;20045;-66
2021/12/21 04:42:51;;;;;;;9.65;4.03;;;1.00;80.10;;;;;;5046822;28;20173;-66
2021/12/21 04:45:17;;;;;;;9.45;4.03;;;1.00;80.20;;;;;;5048427;28;20076;-66
2021/12/21 04:47:43;;;;;;;6.90;3.55;;;1.00;80.20;;;;;;5047860;28;20037;-66
2021/12/21 04:50:11;;;;;;;7.72;3.63;;;1.00;80.10;;;;;;5047900;28;20044;-66
2021/12/21 04:52:36;;;;;;;7.40;3.70;;;1.00;80.10;;;;;;5031915;28;20041;-66
2021/12/21 04:55:03;;;;;;;7.70;4.00;;;1.00;80.10;;;;;;5048832;28;20041;-66
2021/12/21 04:57:29;;;;;;;4.82;3.47;;;1.00;80.10;;;;;;5048927;28;20589;-66
2021/12/21 04:59:54;;;;;;;6.20;3.40;;;1.00;80.10;;;;;;5048015;28;20120;-66
2021/12/21 05:02:20;;;;;;;7.68;3.70;;;1.00;80.10;;;;;;5048389;28;20160;-66
2021/12/21 05:04:46;;;;;;;5.22;3.67;;;1.00;80.10;;;;;;5048627;28;20535;-66
2021/12/21 05:07:16;;;;;;;9.07;3.30;;;0.90;80.10;;;;;;5030632;28;20037;-66
2021/12/21 05:09:44;;;;;;;8.90;4.68;;;0.90;80.10;;;;;;5035003;28;20056;-66
2021/12/21 05:12:13;;;;;;;9.68;3.50;;;0.90;80.10;;;;;;5047655;28;20064;-66
2021/12/21 05:14:39;;;;;;;8.30;3.17;;;0.90;80.20;;;;;;5048470;28;20049;-66
2021/12/21 05:17:05;;;;;;;6.50;3.42;;;0.90;80.20;;;;;;5047892;28;20991;-66
2021/12/21 05:19:31;;;;;;;6.22;4.43;;;0.90;80.20;;;;;;5049816;28;20052;-66
2021/12/21 05:21:57;;;;;;;6.25;3.47;;;0.90;80.20;;;;;;5052085;28;20531;-66
2021/12/21 05:24:23;;;;;;;13.38;6.20;;;0.90;80.10;;;;;;5050796;28;20049;-66
2021/12/21 05:26:49;;;;;;;6.10;3.03;;;0.90;80.00;;;;;;5051876;28;20186;-66
2021/12/21 05:29:15;;;;;;;7.28;3.58;;;0.90;80.00;;;;;;5051620;28;20124;-67
2021/12/21 05:31:41;;;;;;;6.68;3.17;;;0.90;79.90;;;;;;5034069;28;20103;-66
2021/12/21 05:34:06;;;;;;;6.70;3.00;;;0.80;79.80;;;;;;5032294;28;20037;-66
2021/12/21 05:36:32;;;;;;;5.65;3.00;;;0.80;79.80;;;;;;5032215;28;20045;-66
2021/12/21 05:39:03;;;;;;;7.68;3.00;;;0.80;79.90;;;;;;5032395;28;20049;-66
2021/12/21 05:41:45;;;;;;;6.90;3.75;;;0.80;80.00;;;;;;5042637;28;20063;-66
2021/12/21 05:44:11;;;;;;;6.97;3.30;;;0.80;80.00;;;;;;5049647;28;20053;-66
2021/12/21 05:46:37;;;;;;;6.93;2.90;;;0.80;80.10;;;;;;5050553;28;20509;-66
2021/12/21 05:49:02;;;;;;;4.97;2.88;;;0.80;80.10;;;;;;5051109;28;20642;-66
2021/12/21 05:51:28;;;;;;;6.10;2.92;;;0.80;80.00;;;;;;5050284;28;20041;-66
2021/12/21 05:53:54;;;;;;;4.60;2.78;;;0.80;79.90;;;;;;5052284;28;20390;-66
2021/12/21 05:56:19;;;;;;;7.68;3.15;;;0.80;79.90;;;;;;5033711;28;20041;-66
2021/12/21 05:58:45;;;;;;;6.55;3.20;;;0.80;80.00;;;;;;5037387;28;20045;-66
2021/12/21 06:01:11;;;;;;;6.00;2.95;;;0.70;79.90;;;;;;5040556;28;20569;-67
2021/12/21 06:03:37;;;;;;;4.85;2.83;;;0.70;79.90;;;;;;5051266;28;20060;-67
2021/12/21 06:06:03;;;;;;;6.38;3.67;;;0.70;79.80;;;;;;5051637;28;20037;-66
2021/12/21 06:08:28;;;;;;;5.35;3.58;;;0.70;80.00;;;;;;5050620;28;20766;-66
2021/12/21 06:10:56;;;;;;;3.42;2.30;;;0.70;80.10;;;;;;5051307;28;20029;-66
2021/12/21 06:22:45;;;;;;;4.40;2.40;;;0.60;80.10;;;;;;5050344;28;20049;-66
2021/12/21 06:26:40;;;;;;;5.93;3.22;;;0.50;80.10;;;;;;5051025;28;20049;-66
2021/12/21 06:29:06;;;;;;;7.45;3.40;;;0.60;80.10;;;;;;5049653;28;20045;-66
2021/12/21 06:31:31;;;;;;;4.03;3.03;;;0.50;79.90;;;;;;5050053;28;20400;-66
2021/12/21 06:33:57;;;;;;;6.13;3.10;;;0.40;79.80;;;;;;5050641;28;20049;-66
2021/12/21 06:36:23;;;;;;;7.70;3.13;;;0.40;80.10;;;;;;5043365;28;20045;-67
2021/12/21 06:38:49;;;;;;;7.25;3.67;;;0.30;80.40;;;;;;5047984;28;20095;-66
2021/12/21 06:41:15;;;;;;;7.18;3.50;;;0.40;80.40;;;;;;5049648;28;20053;-67
2021/12/21 06:43:41;;;;;;;5.75;3.35;;;0.40;80.40;;;;;;5049390;28;20956;-67
2021/12/21 06:51:54;;;;;;;3.80;2.53;;;0.50;80.20;;;;;;5049651;28;20045;-67
2021/12/21 06:54:20;;;;;;;6.13;2.92;;;0.50;80.20;;;;;;5049999;28;20049;-66
2021/12/21 06:56:46;;;;;;;3.58;3.03;;;0.40;80.20;;;;;;5050393;28;20045;-67
2021/12/21 06:59:12;;;;;;;5.30;2.90;;;0.40;80.20;;;;;;5049305;28;20048;-67
2021/12/21 07:01:39;;;;;;;4.18;3.03;;;0.50;80.10;;;;;;5049844;28;20132;-67
2021/12/21 07:04:06;;;;;;;9.63;3.65;;;0.50;80.10;;;;;;5049459;28;20053;-67
2021/12/21 07:06:34;;;;;;;6.53;3.42;;;0.50;80.10;;;;;;5049651;28;20040;-67
2021/12/21 07:09:07;;;;;;;7.65;3.47;;;0.50;80.00;;;;;;5049308;28;20045;-67
2021/12/21 07:11:43;;;;;;;6.68;3.80;;;0.40;80.00;;;;;;5049688;28;20037;-67
2021/12/21 07:19:38;;;;;;;5.78;3.00;;;0.40;80.00;;;;;;5038772;28;20049;-66
2021/12/21 07:22:05;;;;;;;9.57;3.72;;;0.40;80.10;;;;;;5047972;28;20095;-67
2021/12/21 07:24:31;;;;;;;5.90;3.22;;;0.40;80.10;;;;;;5049244;28;20041;-67
2021/12/21 07:26:56;;;;;;;5.15;3.25;;;0.40;80.10;;;;;;5048157;28;20035;-67
2021/12/21 07:29:22;;;;;;;8.20;3.35;;;0.40;80.20;;;;;;5047674;28;20129;-67
2021/12/21 07:31:48;;;;;;;6.70;3.45;;;0.30;80.20;;;;;;5031138;28;20073;-67
2021/12/21 07:34:14;;;;;;;6.47;3.30;;;0.30;80.20;;;;;;5047722;28;20501;-67
2021/12/21 07:36:43;;;;;;;5.68;3.40;;;0.30;80.20;;;;;;5040773;28;20077;-67
2021/12/21 07:39:12;;;;;;;7.28;3.22;;;0.30;80.20;;;;;;5042204;28;20529;-67
2021/12/21 07:41:37;;;;;;;6.97;3.85;;;0.30;80.10;;;;;;5047335;28;20053;-67
2021/12/21 07:44:03;;;;;;;6.90;3.78;;;0.30;80.00;;;;;;5048371;28;20505;-67
2021/12/21 07:46:29;;;;;;;6.93;3.20;;;0.30;80.00;;;;;;5048954;28;20052;-67
2021/12/21 07:48:55;;;;;;;10.05;4.10;;;0.30;80.10;;;;;;5047415;28;20563;-67
2021/12/21 07:51:20;;;;;;;8.30;4.03;;;0.30;80.20;;;;;;5049661;28;20048;-66
2021/12/21 07:53:47;;;;;;;10.20;4.43;;;0.30;80.20;;;;;;5048648;28;20041;-66
2021/12/21 07:56:14;;;;;;;15.35;5.18;;;0.30;80.10;;;;;;5049004;28;20049;-67
2021/12/21 07:58:40;;;;;;;7.03;4.10;;;0.40;80.20;;;;;;5043089;28;20045;-64
2021/12/21 08:01:06;;;;;;;13.50;7.57;;;1.50;92.40;;;;;;5042908;28;20051;-66
2021/12/21 08:03:33;;;;;;;10.98;5.25;;;2.10;90.50;;;;;;5045980;28;20068;-66
2021/12/21 08:06:04;;;;;;;13.77;6.25;;;2.00;87.50;;;;;;5045145;28;20337;-66
2021/12/21 08:08:30;;;;;;;17.33;4.63;;;1.80;84.40;;;;;;5047247;28;20039;-66
2021/12/21 08:11:14;;;;;;;8.10;4.55;;;1.60;81.50;;;;;;5046720;28;20079;-67
2021/12/21 08:13:43;;;;;;;7.35;3.67;;;1.40;80.90;;;;;;5044322;28;20071;-65
2021/12/21 08:16:10;;;;;;;9.43;4.15;;;1.80;85.10;;;;;;5046599;28;20052;-67
2021/12/21 08:18:35;;;;;;;7.28;4.55;;;1.90;82.70;;;;;;5030727;28;20072;-67
2021/12/21 08:21:02;;;;;;;15.95;4.72;;;1.90;80.70;;;;;;5047484;28;20092;-67
2021/12/21 08:23:28;;;;;;;12.90;4.68;;;1.70;79.70;;;;;;5048396;28;20037;-67
2021/12/21 08:25:56;;;;;;;10.93;4.00;;;1.60;79.50;;;;;;5047207;28;20052;-67
2021/12/21 08:28:22;;;;;;;12.68;5.00;;;1.40;79.40;;;;;;5048938;28;20139;-67
2021/12/21 08:30:48;;;;;;;11.43;5.20;;;1.30;79.40;;;;;;5047758;28;20045;-67
2021/12/21 08:33:14;;;;;;;9.73;5.38;;;1.20;79.30;;;;;;5048547;28;20052;-67
2021/12/21 08:35:39;;;;;;;17.15;6.93;;;1.20;79.40;;;;;;5047452;28;20048;-67
2021/12/21 08:38:08;;;;;;;12.57;8.20;;;1.10;79.40;;;;;;5040434;28;20040;-67
2021/12/21 08:40:39;;;;;;;23.20;7.82;;;1.10;79.70;;;;;;5037123;28;20041;-67
2021/12/21 08:43:14;;;;;;;25.00;8.30;;;1.10;79.80;;;;;;5037477;28;20049;-67
2021/12/21 08:45:41;;;;;;;43.30;8.90;;;1.10;79.90;;;;;;5037846;28;20134;-66
2021/12/21 08:48:09;;;;;;;22.33;8.90;;;1.10;80.10;;;;;;5032797;28;20041;-66
2021/12/21 08:50:36;;;;;;;16.88;7.25;;;1.10;80.20;;;;;;5046726;28;20473;-67
2021/12/21 08:53:02;;;;;;;16.67;9.25;;;1.10;80.20;;;;;;5043337;28;20183;-66
2021/12/21 08:55:28;;;;;;;21.10;7.50;;;1.10;80.30;;;;;;5036651;28;20064;-66
2021/12/21 08:57:54;;;;;;;11.70;6.68;;;1.10;80.50;;;;;;5037127;28;20065;-66
2021/12/21 09:00:20;;;;;;;15.27;7.68;;;1.10;80.40;;;;;;5042770;28;20497;-66
2021/12/21 09:02:46;;;;;;;14.80;5.68;;;1.20;80.60;;;;;;5044958;28;20486;-66
2021/12/21 09:05:16;;;;;;;10.00;5.45;;;1.20;80.70;;;;;;5040553;28;20037;-66
2021/12/21 09:07:46;;;;;;;11.10;5.60;;;1.20;80.70;;;;;;5042313;28;20041;-66
2021/12/21 09:10:13;;;;;;;14.38;5.78;;;1.30;80.80;;;;;;5040709;28;20106;-65
2021/12/21 09:12:40;;;;;;;12.52;5.57;;;1.40;80.80;;;;;;5044795;28;20398;-65
2021/12/21 09:15:07;;;;;;;19.70;9.85;;;1.40;80.80;;;;;;5044445;28;20045;-65
2021/12/21 09:17:33;;;;;;;16.60;7.53;;;1.50;80.90;;;;;;5046375;28;20553;-65
2021/12/21 09:19:59;;;;;;;14.13;7.47;;;1.50;81.00;;;;;;5014691;28;20053;-65
2021/12/21 09:22:25;;;;;;;12.85;7.13;;;1.60;81.00;;;;;;5043891;28;20045;-65
2021/12/21 09:24:51;;;;;;;13.23;6.15;;;1.60;81.10;;;;;;5041318;28;20041;-65
2021/12/21 09:27:18;;;;;;;16.98;6.90;;;1.70;81.10;;;;;;5041188;28;20383;-65
2021/12/21 09:29:44;;;;;;;15.93;6.32;;;1.70;81.20;;;;;;5034713;28;20494;-65
2021/12/21 09:32:13;;;;;;;10.07;5.55;;;1.70;81.40;;;;;;5044339;28;20415;-65
2021/12/21 09:34:40;;;;;;;20.20;6.72;;;1.70;81.30;;;;;;5038202;28;20049;-65
2021/12/21 09:37:08;;;;;;;13.10;5.90;;;1.80;81.40;;;;;;5047227;28;20142;-65
2021/12/21 09:39:34;;;;;;;13.15;6.38;;;1.80;81.40;;;;;;5050652;28;20267;-66
2021/12/21 09:41:59;;;;;;;13.40;6.30;;;1.90;81.40;;;;;;5043342;28;20417;-66
2021/12/21 09:44:25;;;;;;;13.05;7.38;;;1.90;81.30;;;;;;5030305;28;20053;-66
2021/12/21 09:46:51;;;;;;;17.17;7.22;;;1.90;81.40;;;;;;5046646;28;20044;-65
2021/12/21 09:49:16;;;;;;;11.70;6.28;;;1.90;81.40;;;;;;5051094;28;20037;-65
2021/12/21 09:51:43;;;;;;;11.40;6.20;;;1.90;81.50;;;;;;5050157;28;20516;-65
2021/12/21 09:54:08;;;;;;;16.25;6.60;;;1.90;81.60;;;;;;5051376;28;20045;-65
2021/12/21 09:56:34;;;;;;;17.77;5.70;;;1.90;81.60;;;;;;5050981;28;20471;-66
2021/12/21 09:59:01;;;;;;;12.45;5.57;;;1.90;81.60;;;;;;5037904;28;20045;-65
2021/12/21 10:01:27;;;;;;;13.23;6.47;;;2.00;81.60;;;;;;5030374;28;20069;-66
2021/12/21 10:03:53;;;;;;;15.68;5.60;;;2.00;81.70;;;;;;5060426;28;20075;-66
2021/12/21 10:06:18;;;;;;;11.82;5.38;;;2.10;81.60;;;;;;5046030;28;20384;-66
2021/12/21 10:08:44;;;;;;;17.38;6.88;;;2.10;81.60;;;;;;5040916;28;20565;-66
2021/12/21 10:11:19;;;;;;;15.80;7.00;;;2.10;81.60;;;;;;5031183;28;20041;-66
2021/12/21 10:13:45;;;;;;;13.40;6.53;;;2.20;81.60;;;;;;5037501;28;20041;-66
2021/12/21 10:16:10;;;;;;;12.63;5.85;;;2.20;81.60;;;;;;5051096;28;20048;-66
2021/12/21 10:18:41;;;;;;;13.98;6.20;;;2.30;81.50;;;;;;5047019;28;20033;-65
2021/12/21 10:21:14;;;;;;;18.58;7.40;;;2.30;81.50;;;;;;5048873;28;20401;-65
2021/12/21 10:23:43;;;;;;;12.52;5.93;;;2.40;81.60;;;;;;5050727;28;20068;-65
2021/12/21 10:26:19;;;;;;;12.95;6.60;;;2.40;81.60;;;;;;5050533;28;20041;-65
2021/12/21 10:28:50;;;;;;;11.30;6.82;;;2.50;81.70;;;;;;5050520;28;20037;-65
2021/12/21 10:31:21;;;;;;;13.65;6.50;;;2.50;81.70;;;;;;5048009;28;20048;-65
2021/12/21 10:33:48;;;;;;;14.32;5.85;;;2.60;81.70;;;;;;5048894;28;20047;-65
2021/12/21 10:36:14;;;;;;;11.15;5.55;;;2.70;81.80;;;;;;5044002;28;20136;-65
2021/12/21 10:38:54;;;;;;;14.38;5.90;;;2.70;81.70;;;;;;5047624;28;20036;-65
2021/12/21 10:41:39;;;;;;;17.80;7.68;;;2.80;81.70;;;;;;5049992;28;20057;-66
2021/12/21 10:44:16;;;;;;;14.88;6.25;;;2.90;81.70;;;;;;5034467;28;20124;-65
2021/12/21 10:46:44;;;;;;;14.02;5.72;;;3.00;81.60;;;;;;5047315;28;20505;-65
2021/12/21 10:49:17;;;;;;;9.48;4.90;;;3.00;81.40;;;;;;5048091;28;20056;-66
2021/12/21 10:51:54;;;;;;;11.65;5.30;;;2.90;81.20;;;;;;5043240;28;20096;-66
2021/12/21 10:54:30;;;;;;;11.70;5.55;;;2.90;81.10;;;;;;5048509;28;20045;-66
2021/12/21 10:57:00;;;;;;;12.18;5.60;;;2.90;81.10;;;;;;5048329;28;20087;-66
2021/12/21 10:59:36;;;;;;;12.07;4.88;;;3.00;80.90;;;;;;5048479;28;20402;-66
2021/12/21 11:02:07;;;;;;;10.95;5.53;;;3.00;80.80;;;;;;5049678;28;20048;-66
2021/12/21 11:04:37;;;;;;;12.25;5.50;;;3.00;80.70;;;;;;5046136;28;20051;-66
2021/12/21 11:07:27;;;;;;;10.55;5.15;;;3.10;80.70;;;;;;5045978;28;20409;-66
2021/12/21 11:10:01;;;;;;;16.85;6.85;;;3.10;80.70;;;;;;5049925;28;20037;-66
2021/12/21 11:12:29;;;;;;;16.52;6.40;;;3.10;80.70;;;;;;5045218;28;20111;-67
2021/12/21 11:14:57;;;;;;;16.83;6.78;;;3.20;80.80;;;;;;5048785;28;20482;-66
2021/12/21 11:17:23;;;;;;;13.85;5.78;;;3.30;80.70;;;;;;5047986;28;20084;-66
2021/12/21 11:19:53;;;;;;;12.43;5.10;;;3.30;80.30;;;;;;5048565;28;20041;-67
2021/12/21 11:22:21;;;;;;;12.45;5.53;;;3.20;79.90;;;;;;5049347;28;20084;-66
2021/12/21 11:24:48;;;;;;;13.68;5.63;;;3.30;80.10;;;;;;5048779;28;20091;-66
2021/12/21 11:27:16;;;;;;;15.63;6.13;;;3.20;79.90;;;;;;5044872;28;20037;-67
2021/12/21 11:29:43;;;;;;;12.75;6.95;;;3.20;79.60;;;;;;5038900;28;20048;-66
2021/12/21 11:32:11;;;;;;;15.88;5.00;;;3.30;79.80;;;;;;5043865;28;20041;-66
2021/12/21 11:34:57;;;;;;;14.75;6.28;;;3.30;80.00;;;;;;5047339;28;20405;-66
2021/12/21 11:37:27;;;;;;;12.55;5.68;;;3.40;80.00;;;;;;5036623;28;20049;-66
2021/12/21 11:39:54;;;;;;;10.52;4.88;;;3.40;79.90;;;;;;5044642;28;20041;-67
2021/12/21 11:42:31;;;;;;;14.05;5.47;;;3.40;79.80;;;;;;5041787;28;20402;-67
2021/12/21 11:45:07;;;;;;;10.32;4.47;;;3.50;79.60;;;;;;5045196;28;20047;-66
2021/12/21 11:47:44;;;;;;;16.50;6.32;;;3.70;82.10;;;;;;5045449;28;20044;-67
2021/12/21 11:50:11;;;;;;;14.77;5.55;;;3.90;80.90;;;;;;5032580;28;20049;-67
2021/12/21 11:52:46;;;;;;;8.93;4.32;;;4.00;79.80;;;;;;5030024;28;20532;-66
2021/12/21 11:55:12;;;;;;;14.82;4.85;;;4.00;79.30;;;;;;5032266;28;20094;-67
2021/12/21 11:57:51;;;;;;;12.43;4.05;;;3.90;79.00;;;;;;5041359;28;20918;-68
2021/12/21 12:00:21;;;;;;;11.88;4.88;;;3.90;79.10;;;;;;5047012;28;20045;-65
2021/12/21 12:02:48;;;;;;;16.30;5.82;;;3.90;79.30;;;;;;5047147;28;20131;-65
2021/12/21 12:05:15;;;;;;;13.23;5.32;;;3.90;79.30;;;;;;5043310;28;20091;-66
2021/12/21 12:07:40;;;;;;;11.38;4.90;;;4.00;79.30;;;;;;5044603;28;20041;-66
2021/12/21 12:10:09;;;;;;;14.25;5.53;;;4.00;78.80;;;;;;5046955;28;20074;-66
2021/12/21 12:12:35;;;;;;;15.07;4.97;;;4.00;78.70;;;;;;5042726;28;20422;-66
2021/12/21 12:15:04;;;;;;;12.32;5.05;;;3.90;78.90;;;;;;5046913;28;20041;-65
2021/12/21 12:17:30;;;;;;;10.75;4.95;;;4.00;78.70;;;;;;5046709;28;20068;-65
2021/12/21 12:20:05;;;;;;;11.35;4.38;;;4.00;78.50;;;;;;5048021;28;20044;-65
2021/12/21 12:22:43;;;;;;;11.10;3.40;;;4.00;78.50;;;;;;5047199;28;20047;-65
2021/12/21 12:25:21;;;;;;;10.73;3.30;;;4.10;78.30;;;;;;5038654;28;20052;-65
2021/12/21 12:27:49;;;;;;;11.93;5.32;;;4.10;78.20;;;;;;5045580;28;20056;-65
2021/12/21 12:30:19;;;;;;;13.35;4.57;;;4.10;77.80;;;;;;5050337;28;20045;-66
2021/12/21 12:32:56;;;;;;;10.98;4.00;;;4.10;78.10;;;;;;5053257;28;20667;-66
2021/12/21 12:35:25;;;;;;;8.65;3.97;;;4.10;78.00;;;;;;5054592;28;20162;-66
2021/12/21 12:37:57;;;;;;;12.50;4.03;;;4.10;78.10;;;;;;5055618;28;20064;-66
2021/12/21 12:40:24;;;;;;;;;;;4.20;78.20;;;;;;5054207;28;20120;-66
2021/12/21 12:43:02;;;;;;;12.48;3.67;;;4.20;77.80;;;;;;5053861;28;20294;-66
2021/12/21 12:45:43;;;;;;;8.75;3.40;;;4.20;78.20;;;;;;5053022;28;20033;-66
2021/12/21 12:48:24;;;;;;;12.95;4.13;;;4.30;78.10;;;;;;5054985;28;20098;-66
2021/12/21 12:50:53;;;;;;;8.95;3.10;;;4.30;77.80;;;;;;5052899;28;20037;-66
2021/12/21 12:53:19;;;;;;;7.32;3.20;;;4.30;77.70;;;;;;5052943;28;20049;-67
2021/12/21 12:55:54;;;;;;;11.95;3.38;;;4.30;77.30;;;;;;5053780;28;20040;-66
2021/12/21 12:58:25;;;;;;;9.82;3.20;;;4.40;77.40;;;;;;5048223;28;20624;-66
2021/12/21 13:01:02;;;;;;;14.82;3.67;;;4.40;77.40;;;;;;5041132;28;20100;-66
2021/12/21 13:03:46;;;;;;;14.10;3.72;;;5.10;81.80;;;;;;5036161;28;20991;-67
2021/12/21 13:06:14;;;;;;;7.20;3.55;;;5.60;77.40;;;;;;5051385;28;20111;-67
2021/12/21 13:08:42;;;;;;;6.85;3.17;;;5.50;76.40;;;;;;5042189;28;20037;-66
2021/12/21 13:11:09;;;;;;;8.23;3.80;;;5.40;76.10;;;;;;5050839;28;20099;-66
2021/12/21 13:13:35;;;;;;;7.05;2.95;;;5.20;75.70;;;;;;5050603;28;20051;-66
2021/12/21 13:16:09;;;;;;;12.15;3.15;;;5.10;75.80;;;;;;5051662;28;20127;-67
2021/12/21 13:18:55;;;;;;;10.70;4.05;;;5.00;75.20;;;;;;5048990;28;20044;-66
2021/12/21 13:21:27;;;;;;;8.98;3.00;;;4.80;74.70;;;;;;5054513;28;20041;-67
2021/12/21 13:24:05;;;;;;;7.05;3.17;;;4.70;75.40;;;;;;5050314;28;20041;-67
2021/12/21 13:26:36;;;;;;;6.68;2.85;;;4.70;75.70;;;;;;5054521;28;20049;-66
2021/12/21 13:29:04;;;;;;;9.38;2.88;;;4.70;75.60;;;;;;5040193;28;20057;-66
2021/12/21 13:31:30;;;;;;;8.38;3.00;;;4.60;74.40;;;;;;5045072;28;20447;-66
2021/12/21 13:33:58;;;;;;;9.13;3.45;;;4.50;75.20;;;;;;5050230;28;20038;-66
2021/12/21 13:36:43;;;;;;;10.15;3.60;;;4.50;75.00;;;;;;5043515;28;20029;-67
2021/12/21 13:39:29;;;;;;;12.93;2.95;;;4.60;75.30;;;;;;5053078;28;20394;-66
2021/12/21 13:42:10;;;;;;;7.10;2.80;;;4.50;74.70;;;;;;5047311;28;20056;-67
2021/12/21 13:44:52;;;;;;;6.82;2.80;;;4.50;74.90;;;;;;5042712;28;20489;-67
2021/12/21 13:47:22;;;;;;;5.35;2.30;;;4.50;75.00;;;;;;5046174;28;20049;-66
2021/12/21 13:50:15;;;;;;;7.65;2.45;;;4.50;75.20;;;;;;5046723;28;20041;-67
2021/12/21 13:52:45;;;;;;;6.88;2.38;;;4.60;75.10;;;;;;5041037;28;20037;-67
2021/12/21 13:55:23;;;;;;;5.47;2.25;;;4.50;74.60;;;;;;5048715;28;20341;-66